createdAt,value
2017-12-27T00:00:36.990Z,98553.31
2017-12-27T00:03:10.089Z,98542.69
2017-12-27T00:05:43.111Z,98531.31
2017-12-27T00:08:16.155Z,98534.67
2017-12-27T00:10:49.248Z,98534.85
2017-12-27T00:13:22.357Z,98527.75
2017-12-27T00:15:55.394Z,98520.45
2017-12-27T00:18:28.679Z,98507.52
2017-12-27T00:21:01.641Z,98507.12
2017-12-27T00:23:34.678Z,98502.39
2017-12-27T00:26:07.620Z,98492.63
2017-12-27T00:31:34.530Z,98469.23
2017-12-27T00:34:02.000Z,98465.79
2017-12-27T00:36:29.440Z,98460.77
2017-12-27T00:38:58.134Z,98457.58
2017-12-27T00:41:25.628Z,98452.45
2017-12-27T00:43:53.073Z,98452.89
2017-12-27T00:46:20.501Z,98451.35
2017-12-27T00:48:48.771Z,98442.52
2017-12-27T00:51:17.050Z,98448.59
2017-12-27T00:53:44.537Z,98442.83
2017-12-27T00:56:12.480Z,98444.62
2017-12-27T00:58:40.657Z,98430.11
2017-12-27T01:01:08.386Z,98414.81
2017-12-27T01:03:35.880Z,98411.73
2017-12-27T01:06:03.337Z,98401.37
2017-12-27T01:08:30.843Z,98406.92
2017-12-27T01:10:58.392Z,98389.95
2017-12-27T01:13:25.851Z,98387.02
2017-12-27T01:15:53.491Z,98381.96
2017-12-27T01:18:21.153Z,98380.73
2017-12-27T01:20:48.610Z,98383.02
2017-12-27T01:23:16.064Z,98377.16
2017-12-27T01:25:43.531Z,98370.03
2017-12-27T01:28:10.971Z,98373.12
2017-12-27T01:30:38.431Z,98372.69
2017-12-27T01:33:05.871Z,98362.95
2017-12-27T01:35:33.348Z,98358.66
2017-12-27T01:38:00.818Z,98361.00
2017-12-27T01:40:28.259Z,98357.68
2017-12-27T01:42:55.757Z,98351.70
2017-12-27T01:45:23.193Z,98341.89
2017-12-27T01:47:50.659Z,98339.64
2017-12-27T01:50:18.113Z,98328.58
2017-12-27T01:52:45.639Z,98325.75
2017-12-27T01:55:13.083Z,98305.94
2017-12-27T01:57:40.555Z,98299.42
2017-12-27T02:00:07.991Z,98289.77
2017-12-27T02:02:35.455Z,98277.14
2017-12-27T02:05:02.899Z,98271.07
2017-12-27T02:07:30.468Z,98256.79
2017-12-27T02:09:58.084Z,98246.16
2017-12-27T02:12:25.546Z,98245.93
2017-12-27T02:14:53.083Z,98239.84
2017-12-27T02:17:20.548Z,98232.78
2017-12-27T02:19:47.996Z,98216.84
2017-12-27T02:22:15.557Z,98203.42
2017-12-27T02:24:43.019Z,98196.24
2017-12-27T02:27:10.496Z,98185.54
2017-12-27T02:29:38.036Z,98174.96
2017-12-27T02:32:05.539Z,98167.99
2017-12-27T02:34:33.048Z,98153.70
2017-12-27T02:37:00.523Z,98145.88
2017-12-27T02:39:40.068Z,98140.77
2017-12-27T02:42:07.596Z,98140.55
2017-12-27T02:44:35.075Z,98135.97
2017-12-27T02:47:02.515Z,98127.06
2017-12-27T02:49:30.088Z,98124.31
2017-12-27T02:51:57.527Z,98107.74
2017-12-27T02:54:25.080Z,98100.55
2017-12-27T02:56:52.537Z,98089.81
2017-12-27T02:59:19.989Z,98083.50
2017-12-27T03:01:47.427Z,98087.09
2017-12-27T03:04:14.893Z,98075.78
2017-12-27T03:06:42.353Z,98075.25
2017-12-27T03:09:09.818Z,98062.69
2017-12-27T03:11:37.282Z,98057.09
2017-12-27T03:14:04.723Z,98052.80
2017-12-27T03:16:32.199Z,98051.18
2017-12-27T03:18:59.743Z,98040.86
2017-12-27T03:21:27.217Z,98040.43
2017-12-27T03:23:54.796Z,98030.41
2017-12-27T03:26:22.263Z,98023.86
2017-12-27T03:28:49.785Z,98016.49
2017-12-27T03:31:17.289Z,98017.28
2017-12-27T03:33:44.738Z,98009.13
2017-12-27T03:36:12.287Z,97998.66
2017-12-27T03:38:39.809Z,97995.04
2017-12-27T03:41:07.368Z,98002.36
2017-12-27T03:43:34.820Z,97995.89
2017-12-27T03:46:02.288Z,97986.90
2017-12-27T03:48:29.738Z,97994.36
2017-12-27T03:50:57.217Z,97991.91
2017-12-27T03:53:24.703Z,97982.80
2017-12-27T03:55:52.143Z,97976.66
2017-12-27T03:58:19.611Z,97975.45
2017-12-27T04:00:47.127Z,97967.55
2017-12-27T04:03:14.587Z,97972.14
2017-12-27T04:05:42.022Z,97968.97
2017-12-27T04:08:09.505Z,97971.58
2017-12-27T04:10:36.952Z,97958.78
2017-12-27T04:13:04.411Z,97954.91
2017-12-27T04:15:31.842Z,97948.44
2017-12-27T04:17:59.297Z,97948.71
2017-12-27T04:20:26.736Z,97936.45
2017-12-27T04:22:54.230Z,97935.34
2017-12-27T04:25:21.667Z,97927.53
2017-12-27T04:27:49.127Z,97921.98
2017-12-27T04:30:16.567Z,97927.50
2017-12-27T04:32:44.035Z,97924.58
2017-12-27T04:35:11.477Z,97925.83
2017-12-27T04:37:38.966Z,97921.24
2017-12-27T04:40:06.405Z,97913.02
2017-12-27T04:42:33.893Z,97919.35
2017-12-27T04:45:01.351Z,97902.95
2017-12-27T04:47:28.815Z,97902.00
2017-12-27T04:49:56.259Z,97887.05
2017-12-27T04:52:23.723Z,97882.07
2017-12-27T04:54:51.167Z,97879.33
2017-12-27T04:57:18.654Z,97867.70
2017-12-27T04:59:46.122Z,97868.28
2017-12-27T05:02:13.562Z,97869.39
2017-12-27T05:04:41.035Z,97865.55
2017-12-27T05:07:08.550Z,97860.34
2017-12-27T05:09:36.016Z,97850.22
2017-12-27T05:12:03.455Z,97857.98
2017-12-27T05:14:30.931Z,97851.58
2017-12-27T05:16:58.411Z,97847.31
2017-12-27T05:19:25.891Z,97852.72
2017-12-27T05:21:53.326Z,97842.04
2017-12-27T05:24:20.843Z,97846.10
2017-12-27T05:26:48.283Z,97842.91
2017-12-27T05:29:15.779Z,97841.20
2017-12-27T05:31:43.323Z,97844.08
2017-12-27T05:34:10.782Z,97846.32
2017-12-27T05:36:38.219Z,97844.83
2017-12-27T05:39:05.699Z,97846.64
2017-12-27T05:41:33.162Z,97840.78
2017-12-27T05:44:00.627Z,97839.06
2017-12-27T05:46:28.094Z,97831.88
2017-12-27T05:48:55.545Z,97829.19
2017-12-27T05:51:23.014Z,97829.41
2017-12-27T05:53:50.540Z,97827.05
2017-12-27T05:56:18.003Z,97822.52
2017-12-27T05:58:45.442Z,97827.95
2017-12-27T06:01:12.978Z,97818.49
2017-12-27T06:03:40.472Z,97815.61
2017-12-27T06:06:07.935Z,97804.70
2017-12-27T06:08:35.499Z,97805.44
2017-12-27T06:11:02.961Z,97804.91
2017-12-27T06:13:30.394Z,97810.06
2017-12-27T06:15:57.872Z,97814.17
2017-12-27T06:18:25.306Z,97807.64
2017-12-27T06:20:52.868Z,97807.61
2017-12-27T06:23:20.347Z,97798.84
2017-12-27T06:25:47.910Z,97796.56
2017-12-27T06:28:15.377Z,97794.59
2017-12-27T06:30:42.855Z,97795.84
2017-12-27T06:33:10.323Z,97787.45
2017-12-27T06:35:37.802Z,97784.36
2017-12-27T06:38:05.263Z,97784.01
2017-12-27T06:40:32.702Z,97784.22
2017-12-27T06:43:00.240Z,97779.78
2017-12-27T06:45:27.766Z,97780.27
2017-12-27T06:47:55.243Z,97775.71
2017-12-27T06:50:22.704Z,97768.87
2017-12-27T06:52:50.256Z,97759.46
2017-12-27T06:55:17.699Z,97760.70
2017-12-27T06:57:45.167Z,97756.80
2017-12-27T07:00:12.603Z,97756.58
2017-12-27T07:02:40.130Z,97752.77
2017-12-27T07:05:07.715Z,97745.36
2017-12-27T07:07:35.151Z,97746.16
2017-12-27T07:10:02.619Z,97738.34
2017-12-27T07:12:30.160Z,97742.12
2017-12-27T07:14:57.623Z,97737.30
2017-12-27T07:17:25.074Z,97727.16
2017-12-27T07:19:52.558Z,97736.01
2017-12-27T07:22:20.000Z,97726.44
2017-12-27T07:24:47.459Z,97722.91
2017-12-27T07:27:14.907Z,97717.89
2017-12-27T07:29:42.372Z,97711.74
2017-12-27T07:32:09.815Z,97711.81
2017-12-27T07:34:37.292Z,97709.98
2017-12-27T07:37:04.744Z,97709.06
2017-12-27T07:39:32.202Z,97706.16
2017-12-27T07:41:59.659Z,97704.85
2017-12-27T07:44:27.119Z,97702.77
2017-12-27T07:46:54.558Z,97694.54
2017-12-27T07:49:22.043Z,97691.17
2017-12-27T07:51:49.496Z,97698.09
2017-12-27T07:54:16.935Z,97687.73
2017-12-27T07:56:44.476Z,97688.96
2017-12-27T07:59:11.919Z,97685.86
2017-12-27T08:01:39.378Z,97689.89
2017-12-27T08:04:06.828Z,97682.66
2017-12-27T08:06:34.301Z,97677.02
2017-12-27T08:09:01.738Z,97675.23
2017-12-27T08:11:29.204Z,97670.98
2017-12-27T08:13:56.634Z,97672.53
2017-12-27T08:16:24.106Z,97660.34
2017-12-27T08:18:51.555Z,97661.62
2017-12-27T08:21:19.019Z,97661.34
2017-12-27T08:23:46.461Z,97650.39
2017-12-27T08:26:13.960Z,97650.51
2017-12-27T08:28:41.428Z,97654.90
2017-12-27T08:31:08.871Z,97654.80
2017-12-27T08:33:36.330Z,97649.92
2017-12-27T08:36:03.784Z,97644.66
2017-12-27T08:38:31.240Z,97637.72
2017-12-27T08:40:58.684Z,97640.20
2017-12-27T08:43:26.153Z,97639.02
2017-12-27T08:45:53.595Z,97637.06
2017-12-27T08:48:21.183Z,97636.25
2017-12-27T08:50:48.627Z,97636.15
2017-12-27T08:53:16.123Z,97630.06
2017-12-27T08:55:43.567Z,97624.25
2017-12-27T08:58:11.092Z,97626.34
2017-12-27T09:00:38.539Z,97622.98
2017-12-27T09:03:06.116Z,97624.98
2017-12-27T09:05:33.703Z,97626.27
2017-12-27T09:08:01.244Z,97618.77
2017-12-27T09:10:28.687Z,97620.63
2017-12-27T09:12:56.251Z,97610.86
2017-12-27T09:15:23.691Z,97616.30
2017-12-27T09:17:51.158Z,97617.91
2017-12-27T09:20:18.595Z,97610.27
2017-12-27T09:22:46.035Z,97612.25
2017-12-27T09:25:13.503Z,97614.21
2017-12-27T09:27:40.935Z,97609.72
2017-12-27T09:30:08.395Z,97620.67
2017-12-27T09:32:35.855Z,97614.81
2017-12-27T09:35:03.327Z,97619.16
2017-12-27T09:37:30.763Z,97612.65
2017-12-27T09:39:58.228Z,97605.07
2017-12-27T09:42:25.718Z,97604.81
2017-12-27T09:44:53.174Z,97600.60
2017-12-27T09:47:20.621Z,97602.95
2017-12-27T09:49:48.124Z,97600.02
2017-12-27T09:52:15.761Z,97595.80
2017-12-27T09:54:43.262Z,97595.59
2017-12-27T09:57:10.702Z,97591.14
2017-12-27T09:59:38.175Z,97590.11
2017-12-27T10:02:05.641Z,97582.48
2017-12-27T10:04:33.087Z,97580.36
2017-12-27T10:07:00.607Z,97573.11
2017-12-27T10:09:28.056Z,97567.31
2017-12-27T10:11:55.520Z,97571.56
2017-12-27T10:14:22.963Z,97556.10
2017-12-27T10:16:50.431Z,97547.74
2017-12-27T10:19:17.863Z,97547.97
2017-12-27T10:21:45.345Z,97547.30
2017-12-27T10:24:12.807Z,97541.80
2017-12-27T10:26:40.276Z,97538.45
2017-12-27T10:29:07.805Z,97527.62
2017-12-27T10:31:35.280Z,97528.28
2017-12-27T10:34:02.760Z,97521.66
2017-12-27T10:36:30.211Z,97511.13
2017-12-27T10:38:57.742Z,97506.38
2017-12-27T10:41:25.229Z,97508.03
2017-12-27T10:43:52.961Z,97500.70
2017-12-27T10:46:20.431Z,97498.33
2017-12-27T10:48:47.916Z,97502.64
2017-12-27T10:51:15.363Z,97495.56
2017-12-27T10:53:42.855Z,97493.47
2017-12-27T10:56:10.305Z,97486.94
2017-12-27T10:58:37.773Z,97486.12
2017-12-27T11:01:05.210Z,97480.45
2017-12-27T11:03:32.708Z,97480.44
2017-12-27T11:06:00.487Z,97470.52
2017-12-27T11:08:27.941Z,97474.91
2017-12-27T11:10:55.403Z,97468.20
2017-12-27T11:13:22.975Z,97476.14
2017-12-27T11:15:50.472Z,97479.53
2017-12-27T11:18:17.914Z,97469.52
2017-12-27T11:20:45.376Z,97472.28
2017-12-27T11:23:12.833Z,97469.13
2017-12-27T11:25:40.313Z,97472.79
2017-12-27T11:28:07.772Z,97469.32
2017-12-27T11:30:35.240Z,97470.77
2017-12-27T11:33:02.675Z,97463.66
2017-12-27T11:35:30.158Z,97455.83
2017-12-27T11:37:57.636Z,97457.17
2017-12-27T11:40:25.127Z,97448.73
2017-12-27T11:42:52.650Z,97443.18
2017-12-27T11:45:20.239Z,97438.59
2017-12-27T11:47:47.780Z,97441.29
2017-12-27T11:50:15.266Z,97436.90
2017-12-27T11:52:42.852Z,97443.73
2017-12-27T11:55:10.302Z,97436.47
2017-12-27T11:57:37.814Z,97425.16
2017-12-27T12:00:05.295Z,97421.40
2017-12-27T12:02:32.779Z,97419.13
2017-12-27T12:05:00.259Z,97424.69
2017-12-27T12:07:27.719Z,97415.81
2017-12-27T12:09:55.316Z,97413.32
2017-12-27T12:12:22.780Z,97410.31
2017-12-27T12:14:50.255Z,97403.17
2017-12-27T12:17:17.718Z,97403.48
2017-12-27T12:19:45.164Z,97400.89
2017-12-27T12:22:12.652Z,97395.13
2017-12-27T12:24:40.119Z,97390.31
2017-12-27T12:27:07.554Z,97391.42
2017-12-27T12:29:35.039Z,97389.69
2017-12-27T12:32:02.502Z,97395.88
2017-12-27T12:34:29.978Z,97391.59
2017-12-27T12:36:57.448Z,97390.20
2017-12-27T12:39:24.923Z,97386.83
2017-12-27T12:41:52.363Z,97385.55
2017-12-27T12:44:19.846Z,97386.66
2017-12-27T12:46:47.366Z,97382.65
2017-12-27T12:49:14.899Z,97376.24
2017-12-27T12:51:42.456Z,97374.75
2017-12-27T12:54:09.955Z,97367.23
2017-12-27T12:56:37.446Z,97371.22
2017-12-27T12:59:04.891Z,97366.39
2017-12-27T13:01:32.490Z,97359.03
2017-12-27T13:03:59.932Z,97354.69
2017-12-27T13:06:27.404Z,97353.97
2017-12-27T13:08:54.851Z,97354.53
2017-12-27T13:11:22.315Z,97344.12
2017-12-27T13:13:49.760Z,97350.72
2017-12-27T13:16:17.262Z,97356.34
2017-12-27T13:18:44.709Z,97350.41
2017-12-27T13:21:12.175Z,97347.30
2017-12-27T13:23:39.624Z,97349.00
2017-12-27T13:26:07.113Z,97351.59
2017-12-27T13:28:34.651Z,97348.55
2017-12-27T13:31:02.142Z,97339.47
2017-12-27T13:33:29.708Z,97336.77
2017-12-27T13:35:57.149Z,97336.01
2017-12-27T13:38:24.611Z,97331.42
2017-12-27T13:40:52.123Z,97340.34
2017-12-27T13:43:19.599Z,97341.20
2017-12-27T13:45:47.039Z,97342.30
2017-12-27T13:48:14.538Z,97337.75
2017-12-27T13:50:42.030Z,97333.52
2017-12-27T13:53:09.558Z,97337.80
2017-12-27T13:55:36.990Z,97326.95
2017-12-27T13:58:04.472Z,97327.88
2017-12-27T14:00:31.954Z,97327.43
2017-12-27T14:02:59.488Z,97328.28
2017-12-27T14:05:27.060Z,97328.48
2017-12-27T14:07:54.615Z,97327.50
2017-12-27T14:10:22.078Z,97332.94
2017-12-27T14:12:49.530Z,97334.50
2017-12-27T14:15:17.025Z,97329.39
2017-12-27T14:17:44.471Z,97325.58
2017-12-27T14:20:11.937Z,97321.52
2017-12-27T14:22:39.391Z,97321.27
2017-12-27T14:25:06.880Z,97324.52
2017-12-27T14:27:34.359Z,97325.42
2017-12-27T14:30:01.800Z,97329.20
2017-12-27T14:32:29.279Z,97336.38
2017-12-27T14:34:56.739Z,97345.95
2017-12-27T14:37:24.211Z,97347.39
2017-12-27T14:39:51.690Z,97348.18
2017-12-27T14:42:19.162Z,97356.43
2017-12-27T14:44:46.636Z,97345.72
2017-12-27T14:47:14.102Z,97338.04
2017-12-27T14:49:41.571Z,97339.31
2017-12-27T14:52:09.043Z,97340.48
2017-12-27T14:54:36.480Z,97342.48
2017-12-27T14:57:03.952Z,97352.76
2017-12-27T14:59:31.398Z,97350.31
2017-12-27T15:01:58.842Z,97351.80
2017-12-27T15:04:26.307Z,97333.23
2017-12-27T15:06:53.751Z,97335.14
2017-12-27T15:09:21.255Z,97341.28
2017-12-27T15:11:48.788Z,97340.54
2017-12-27T15:14:16.271Z,97350.11
2017-12-27T15:16:43.751Z,97347.77
2017-12-27T15:19:11.311Z,97354.13
2017-12-27T15:21:38.770Z,97359.64
2017-12-27T15:24:06.239Z,97371.91
2017-12-27T15:26:33.682Z,97368.31
2017-12-27T15:29:01.177Z,97368.94
2017-12-27T15:31:28.647Z,97378.98
2017-12-27T15:33:56.101Z,97381.70
2017-12-27T15:36:23.561Z,97373.32
2017-12-27T15:38:51.015Z,97378.78
2017-12-27T15:41:18.478Z,97385.27
2017-12-27T15:43:45.919Z,97389.91
2017-12-27T15:46:13.374Z,97389.72
2017-12-27T15:48:40.815Z,97390.13
2017-12-27T15:51:08.291Z,97388.91
2017-12-27T15:53:35.731Z,97392.73
2017-12-27T15:56:03.200Z,97389.44
2017-12-27T15:58:30.658Z,97396.05
2017-12-27T16:00:58.124Z,97394.78
2017-12-27T16:03:25.623Z,97403.03
2017-12-27T16:05:53.134Z,97399.69
2017-12-27T16:08:20.622Z,97407.25
2017-12-27T16:10:48.067Z,97401.42
2017-12-27T16:13:15.526Z,97402.64
2017-12-27T16:15:42.987Z,97401.91
2017-12-27T16:18:10.474Z,97409.33
2017-12-27T16:20:37.915Z,97409.47
2017-12-27T16:23:05.429Z,97407.02
2017-12-27T16:25:32.867Z,97407.42
2017-12-27T16:28:00.315Z,97409.87
2017-12-27T16:30:27.775Z,97406.52
2017-12-27T16:32:55.218Z,97406.70
2017-12-27T16:35:22.780Z,97418.27
2017-12-27T16:37:50.230Z,97417.04
2017-12-27T16:40:17.702Z,97414.07
2017-12-27T16:42:45.176Z,97412.16
2017-12-27T16:45:12.639Z,97409.94
2017-12-27T16:47:40.083Z,97409.09
2017-12-27T16:50:07.552Z,97416.20
2017-12-27T16:52:35.006Z,97419.61
2017-12-27T16:55:02.485Z,97420.03
2017-12-27T16:57:30.016Z,97418.48
2017-12-27T16:59:57.462Z,97416.59
2017-12-27T17:02:24.935Z,97413.49
2017-12-27T17:04:52.374Z,97413.48
2017-12-27T17:07:19.830Z,97412.82
2017-12-27T17:09:47.263Z,97417.82
2017-12-27T17:12:14.736Z,97410.70
2017-12-27T17:14:42.177Z,97417.69
2017-12-27T17:17:09.646Z,97410.85
2017-12-27T17:19:37.086Z,97425.45
2017-12-27T17:22:04.555Z,97431.34
2017-12-27T17:24:32.019Z,97432.75
2017-12-27T17:26:59.483Z,97425.26
2017-12-27T17:29:26.941Z,97435.20
2017-12-27T17:31:54.423Z,97435.16
2017-12-27T17:34:22.950Z,97436.44
2017-12-27T17:36:50.396Z,97447.41
2017-12-27T17:39:17.908Z,97454.65
2017-12-27T17:41:45.359Z,97447.73
2017-12-27T17:44:12.907Z,97448.81
2017-12-27T17:46:40.664Z,97445.75
2017-12-27T17:49:08.135Z,97455.66
2017-12-27T17:51:35.579Z,97451.64
2017-12-27T17:54:03.069Z,97451.69
2017-12-27T17:56:30.513Z,97453.02
2017-12-27T17:58:58.014Z,97459.81
2017-12-27T18:01:25.487Z,97463.87
2017-12-27T18:03:52.930Z,97461.80
2017-12-27T18:06:20.390Z,97466.88
2017-12-27T18:08:47.855Z,97472.73
2017-12-27T18:11:15.324Z,97473.48
2017-12-27T18:13:42.810Z,97482.39
2017-12-27T18:16:10.323Z,97487.72
2017-12-27T18:18:37.825Z,97491.91
2017-12-27T18:21:05.291Z,97486.73
2017-12-27T18:23:32.843Z,97498.66
2017-12-27T18:26:00.322Z,97496.16
2017-12-27T18:28:27.766Z,97497.00
2017-12-27T18:30:55.266Z,97496.00
2017-12-27T18:33:23.803Z,97495.62
2017-12-27T18:35:51.262Z,97495.52
2017-12-27T18:38:18.717Z,97489.70
2017-12-27T18:40:46.191Z,97492.94
2017-12-27T18:43:13.723Z,97494.64
2017-12-27T18:45:41.196Z,97500.58
2017-12-27T18:48:08.740Z,97495.51
2017-12-27T18:50:36.234Z,97492.45
2017-12-27T18:53:03.675Z,97496.16
2017-12-27T18:55:31.110Z,97493.83
2017-12-27T18:57:58.575Z,97502.20
2017-12-27T19:00:26.020Z,97511.94
2017-12-27T19:02:53.483Z,97515.91
2017-12-27T19:05:20.940Z,97521.27
2017-12-27T19:07:48.398Z,97519.17
2017-12-27T19:10:15.840Z,97520.91
2017-12-27T19:12:43.328Z,97519.58
2017-12-27T19:15:10.791Z,97526.23
2017-12-27T19:17:38.275Z,97521.31
2017-12-27T19:20:05.724Z,97525.64
2017-12-27T19:22:33.215Z,97535.47
2017-12-27T19:25:00.679Z,97535.56
2017-12-27T19:27:28.110Z,97534.93
2017-12-27T19:29:55.598Z,97536.95
2017-12-27T19:32:23.040Z,97537.66
2017-12-27T19:34:50.606Z,97535.18
2017-12-27T19:37:18.075Z,97543.47
2017-12-27T19:39:45.683Z,97550.20
2017-12-27T19:42:13.188Z,97546.87
2017-12-27T19:44:40.644Z,97550.33
2017-12-27T19:47:08.134Z,97541.77
2017-12-27T19:49:35.627Z,97542.89
2017-12-27T19:52:03.131Z,97545.95
2017-12-27T19:54:30.599Z,97553.24
2017-12-27T19:56:58.131Z,97558.38
2017-12-27T19:59:25.691Z,97554.92
2017-12-27T20:01:53.147Z,97554.54
2017-12-27T20:04:20.606Z,97557.44
2017-12-27T20:06:48.038Z,97556.07
2017-12-27T20:09:15.675Z,97561.05
2017-12-27T20:11:43.109Z,97570.66
2017-12-27T20:14:10.544Z,97568.27
2017-12-27T20:16:38.013Z,97570.78
2017-12-27T20:19:05.472Z,97582.03
2017-12-27T20:21:32.930Z,97579.25
2017-12-27T20:24:00.455Z,97585.94
2017-12-27T20:26:27.924Z,97584.48
2017-12-27T20:28:55.392Z,97586.31
2017-12-27T20:31:22.855Z,97590.14
2017-12-27T20:33:50.311Z,97590.66
2017-12-27T20:36:17.835Z,97587.58
2017-12-27T20:38:45.284Z,97582.12
2017-12-27T20:41:12.741Z,97586.22
2017-12-27T20:43:40.188Z,97586.09
2017-12-27T20:46:07.659Z,97592.59
2017-12-27T20:48:35.111Z,97592.34
2017-12-27T20:51:02.580Z,97592.97
2017-12-27T20:53:30.047Z,97595.78
2017-12-27T20:55:57.527Z,97600.12
2017-12-27T20:58:24.971Z,97602.59
2017-12-27T21:00:52.430Z,97610.53
2017-12-27T21:03:19.899Z,97608.61
2017-12-27T21:05:47.419Z,97610.27
2017-12-27T21:08:14.884Z,97619.03
2017-12-27T21:10:42.331Z,97621.41
2017-12-27T21:13:09.789Z,97626.00
2017-12-27T21:15:37.222Z,97635.09
2017-12-27T21:18:04.705Z,97643.34
2017-12-27T21:20:32.158Z,97645.93
2017-12-27T21:22:59.619Z,97646.41
2017-12-27T21:25:27.129Z,97644.44
2017-12-27T21:27:54.597Z,97640.55
2017-12-27T21:30:22.043Z,97640.02
2017-12-27T21:32:49.528Z,97642.15
2017-12-27T21:35:17.003Z,97646.40
2017-12-27T21:37:44.490Z,97643.34
2017-12-27T21:40:11.937Z,97650.92
2017-12-27T21:42:39.403Z,97656.91
2017-12-27T21:45:06.902Z,97654.64
2017-12-27T21:47:39.941Z,97658.60
2017-12-27T21:50:07.499Z,97669.28
2017-12-27T21:52:34.959Z,97665.49
2017-12-27T21:55:02.424Z,97668.48
2017-12-27T21:57:29.893Z,97672.12
2017-12-27T22:00:03.075Z,97673.86
2017-12-27T22:02:30.594Z,97676.77
2017-12-27T22:04:58.051Z,97670.13
2017-12-27T22:07:25.507Z,97676.09
2017-12-27T22:09:53.009Z,97672.09
2017-12-27T22:12:20.463Z,97679.44
2017-12-27T22:14:47.946Z,97685.94
2017-12-27T22:17:15.558Z,97696.49
2017-12-27T22:19:43.093Z,97698.58
2017-12-27T22:22:10.539Z,97694.19
2017-12-27T22:24:38.003Z,97698.23
2017-12-27T22:27:05.451Z,97699.05
2017-12-27T22:29:32.939Z,97699.63
2017-12-27T22:32:00.487Z,97694.92
2017-12-27T22:34:27.957Z,97702.95
2017-12-27T22:36:55.398Z,97701.25
2017-12-27T22:39:22.843Z,97708.73
2017-12-27T22:41:50.412Z,97710.99
2017-12-27T22:44:17.858Z,97715.54
2017-12-27T22:46:45.322Z,97719.80
2017-12-27T22:49:12.774Z,97729.73
2017-12-27T22:51:40.342Z,97728.46
2017-12-27T22:54:07.782Z,97741.30
2017-12-27T22:56:35.239Z,97735.59
2017-12-27T22:59:02.761Z,97744.16
2017-12-27T23:01:30.385Z,97741.98
2017-12-27T23:03:57.831Z,97739.34
2017-12-27T23:06:25.294Z,97736.59
2017-12-27T23:08:52.792Z,97731.98
2017-12-27T23:11:20.264Z,97740.20
2017-12-27T23:13:47.910Z,97742.38
2017-12-27T23:16:15.426Z,97748.39
2017-12-27T23:18:42.866Z,97753.41
2017-12-27T23:21:10.328Z,97753.48
2017-12-27T23:23:37.796Z,97759.44
2017-12-27T23:26:05.248Z,97758.67
2017-12-27T23:28:32.712Z,97760.80
2017-12-27T23:31:00.165Z,97765.27
2017-12-27T23:33:27.679Z,97758.29
2017-12-27T23:35:55.176Z,97762.24
2017-12-27T23:38:22.657Z,97757.38
2017-12-27T23:40:50.109Z,97764.88
2017-12-27T23:43:17.635Z,97765.85
2017-12-27T23:45:45.074Z,97760.36
2017-12-27T23:48:12.593Z,97765.87
2017-12-27T23:50:40.043Z,97771.08
2017-12-27T23:53:07.506Z,97768.63
2017-12-27T23:55:34.947Z,97774.73
2017-12-27T23:58:02.407Z,97767.00
